createdAt,value
2022-08-05T00:00:17.289Z,7.93
2022-08-05T00:02:50.580Z,7.28
2022-08-05T00:06:03.069Z,10.77
2022-08-05T00:08:32.827Z,14.88
2022-08-05T00:10:56.577Z,8.55
2022-08-05T00:13:38.037Z,9.27
2022-08-05T00:16:10.909Z,6.53
2022-08-05T00:18:40.352Z,11.00
2022-08-05T00:21:09.880Z,12.75
2022-08-05T00:23:46.489Z,13.63
2022-08-05T00:26:21.975Z,8.32
2022-08-05T00:28:50.137Z,8.98
2022-08-05T00:37:13.221Z,10.20
2022-08-05T00:39:44.338Z,6.45
2022-08-05T00:42:32.522Z,12.20
2022-08-05T00:45:00.318Z,10.73
2022-08-05T00:47:31.550Z,13.32
2022-08-05T00:50:15.410Z,11.90
2022-08-05T00:52:45.468Z,6.90
2022-08-05T00:55:14.949Z,10.60
2022-08-05T00:57:58.710Z,9.20
2022-08-05T01:00:27.058Z,7.03
2022-08-05T01:02:54.845Z,9.02
2022-08-05T01:05:22.336Z,6.70
2022-08-05T01:08:40.996Z,10.77
2022-08-05T01:10:52.462Z,5.72
2022-08-05T01:13:27.583Z,10.48
2022-08-05T01:16:15.255Z,9.18
2022-08-05T01:18:56.396Z,7.72
2022-08-05T01:21:37.896Z,8.65
2022-08-05T01:24:13.303Z,10.00
2022-08-05T01:26:48.974Z,7.35
2022-08-05T01:29:23.220Z,11.35
2022-08-05T01:31:52.371Z,6.13
2022-08-05T01:34:26.664Z,11.02
2022-08-05T01:36:55.842Z,10.05
2022-08-05T01:39:46.685Z,7.47
2022-08-05T01:42:17.017Z,6.10
2022-08-05T01:44:54.403Z,7.85
2022-08-05T01:52:30.498Z,7.93
2022-08-05T01:55:00.546Z,8.07
2022-08-05T01:58:12.868Z,6.15
2022-08-05T02:00:18.678Z,10.80
2022-08-05T02:02:54.344Z,8.23
2022-08-05T02:05:24.064Z,8.18
2022-08-05T02:07:59.985Z,11.73
2022-08-05T02:10:31.885Z,8.90
2022-08-05T02:13:02.357Z,9.88
2022-08-05T02:15:35.953Z,6.97
2022-08-05T02:18:33.135Z,8.02
2022-08-05T02:20:54.616Z,11.35
2022-08-05T02:23:29.994Z,11.95
2022-08-05T02:26:03.600Z,13.25
2022-08-05T02:28:35.231Z,13.57
2022-08-05T02:31:13.866Z,8.18
2022-08-05T02:33:44.933Z,8.63
2022-08-05T02:36:17.708Z,13.23
2022-08-05T02:38:53.221Z,8.15
2022-08-05T02:41:23.011Z,11.43
2022-08-05T02:44:06.392Z,10.35
2022-08-05T02:46:53.850Z,15.40
2022-08-05T02:49:35.559Z,17.08
2022-08-05T02:52:04.938Z,17.00
2022-08-05T02:54:36.040Z,9.18
2022-08-05T02:57:07.866Z,11.57
2022-08-05T02:59:50.697Z,11.75
2022-08-05T03:02:21.764Z,11.27
2022-08-05T03:04:53.221Z,9.52
2022-08-05T03:07:40.582Z,10.95
2022-08-05T03:10:09.465Z,10.98
2022-08-05T03:12:38.327Z,12.25
2022-08-05T03:15:06.852Z,13.65
2022-08-05T03:17:41.484Z,9.63
2022-08-05T03:20:10.433Z,16.40
2022-08-05T03:22:37.988Z,12.70
2022-08-05T03:25:33.974Z,17.48
2022-08-05T03:28:00.685Z,12.73
2022-08-05T03:30:33.726Z,13.65
2022-08-05T03:33:03.784Z,19.17
2022-08-05T03:35:34.066Z,13.93
2022-08-05T03:38:11.613Z,21.92
2022-08-05T03:40:40.821Z,16.83
2022-08-05T03:43:59.203Z,13.38
2022-08-05T03:45:58.038Z,15.27
2022-08-05T03:48:28.985Z,16.65
2022-08-05T03:52:50.201Z,22.00
2022-08-05T03:55:51.689Z,15.50
2022-08-05T03:56:41.290Z,16.98
2022-08-05T03:59:10.263Z,19.85
2022-08-05T04:01:38.501Z,22.98
2022-08-05T04:04:10.655Z,23.88
2022-08-05T04:06:38.625Z,16.05
2022-08-05T04:09:20.227Z,21.02
2022-08-05T04:11:53.925Z,28.33
2022-08-05T04:14:30.089Z,24.65
2022-08-05T04:16:58.988Z,21.17
2022-08-05T04:19:28.252Z,20.70
2022-08-05T04:22:09.577Z,25.00
2022-08-05T04:24:44.499Z,23.42
2022-08-05T04:27:12.393Z,27.50
2022-08-05T04:29:39.945Z,33.13
2022-08-05T04:32:07.792Z,43.28
2022-08-05T04:34:42.736Z,25.48
2022-08-05T04:37:11.006Z,30.52
2022-08-05T04:39:39.213Z,35.38
2022-08-05T04:42:08.040Z,25.52
2022-08-05T04:44:36.654Z,29.83
2022-08-05T04:47:09.362Z,25.27
2022-08-05T04:50:03.072Z,28.52
2022-08-05T04:52:27.614Z,24.70
2022-08-05T04:54:56.882Z,24.23
2022-08-05T04:57:28.965Z,26.95
2022-08-05T04:59:57.056Z,34.38
2022-08-05T05:02:41.757Z,19.80
2022-08-05T05:05:26.419Z,28.63
2022-08-05T05:08:01.074Z,27.40
2022-08-05T05:10:29.711Z,29.55
2022-08-05T05:12:57.725Z,32.47
2022-08-05T05:20:41.159Z,29.42
2022-08-05T05:23:19.872Z,24.85
2022-08-05T05:25:47.863Z,31.50
2022-08-05T05:28:15.371Z,31.17
2022-08-05T05:30:43.188Z,32.03
2022-08-05T05:33:17.724Z,41.55
2022-08-05T05:35:52.435Z,35.45
2022-08-05T05:38:22.366Z,29.92
2022-08-05T05:40:55.612Z,35.28
2022-08-05T05:43:54.247Z,31.33
2022-08-05T05:46:17.213Z,24.40
2022-08-05T05:48:46.086Z,35.83
2022-08-05T05:51:20.788Z,33.28
2022-08-05T05:53:57.331Z,33.10
2022-08-05T05:58:53.717Z,29.40
2022-08-05T06:01:23.439Z,38.03
2022-08-05T06:06:31.079Z,36.08
2022-08-05T06:09:00.870Z,37.83
2022-08-05T06:11:28.947Z,42.00
2022-08-05T06:13:56.800Z,36.88
2022-08-05T06:16:29.865Z,47.70
2022-08-05T06:19:01.198Z,43.35
2022-08-05T06:21:36.921Z,37.60
2022-08-05T06:24:05.843Z,48.05
2022-08-05T06:26:33.958Z,35.63
2022-08-05T06:29:23.599Z,44.80
2022-08-05T06:34:19.986Z,37.47
2022-08-05T06:36:58.277Z,33.28
2022-08-05T06:39:27.262Z,61.25
2022-08-05T06:41:56.263Z,35.28
2022-08-05T06:44:26.217Z,32.30
2022-08-05T06:46:54.339Z,32.85
2022-08-05T06:50:00.726Z,32.85
2022-08-05T06:54:58.140Z,48.05
2022-08-05T06:58:03.331Z,35.53
2022-08-05T07:00:13.380Z,32.70
2022-08-05T07:02:54.016Z,41.50
2022-08-05T07:05:31.800Z,37.30
2022-08-05T07:08:05.707Z,43.08
2022-08-05T07:10:34.564Z,36.15
2022-08-05T07:13:56.950Z,40.75
2022-08-05T07:17:56.690Z,34.20
2022-08-05T07:19:12.303Z,37.10
2022-08-05T07:22:01.160Z,30.27
2022-08-05T07:24:30.100Z,36.20
2022-08-05T07:26:58.942Z,32.38
2022-08-05T07:30:27.677Z,33.92
2022-08-05T07:34:42.543Z,33.58
2022-08-05T07:37:11.572Z,19.20
2022-08-05T07:40:25.994Z,27.80
2022-08-05T07:42:33.691Z,32.08
2022-08-05T07:45:01.636Z,30.05
2022-08-05T07:47:30.438Z,26.70
2022-08-05T07:50:10.750Z,24.05
2022-08-05T07:52:39.477Z,23.30
2022-08-05T07:55:16.097Z,19.55
2022-08-05T07:58:02.831Z,17.90
2022-08-05T08:00:30.906Z,17.17
2022-08-05T08:03:15.186Z,22.75
2022-08-05T08:05:49.849Z,13.77
2022-08-05T08:08:19.768Z,17.30
2022-08-05T08:10:48.727Z,28.35
2022-08-05T08:13:21.884Z,22.15
2022-08-05T08:16:35.618Z,20.50
2022-08-05T08:21:18.004Z,17.50
2022-08-05T08:24:01.354Z,21.45
2022-08-05T08:26:31.980Z,15.57
2022-08-05T08:31:48.649Z,18.95
2022-08-05T08:34:16.203Z,12.70
2022-08-05T08:36:50.608Z,12.23
2022-08-05T08:39:23.451Z,14.43
2022-08-05T08:41:59.519Z,13.55
2022-08-05T08:45:24.182Z,16.30
2022-08-05T08:48:05.565Z,15.57
2022-08-05T08:50:32.016Z,13.65
2022-08-05T08:53:02.318Z,17.52
2022-08-05T08:56:04.182Z,14.95
2022-08-05T08:58:26.098Z,13.82
2022-08-05T09:01:04.991Z,13.40
2022-08-05T09:03:44.938Z,16.63
2022-08-05T09:06:15.788Z,10.52
2022-08-05T09:08:46.042Z,16.00
2022-08-05T09:11:14.798Z,22.70
2022-08-05T09:14:00.816Z,15.00
2022-08-05T09:16:30.122Z,12.63
2022-08-05T09:18:59.731Z,12.82
2022-08-05T09:22:17.865Z,9.05
2022-08-05T09:24:15.827Z,17.77
2022-08-05T09:26:47.195Z,16.50
2022-08-05T09:29:19.322Z,13.65
2022-08-05T09:32:41.033Z,15.27
2022-08-05T09:34:51.861Z,12.45
2022-08-05T09:38:12.071Z,13.30
2022-08-05T09:40:08.641Z,9.93
2022-08-05T09:42:40.147Z,14.23
2022-08-05T09:46:05.058Z,13.60
2022-08-05T09:47:56.883Z,12.90
2022-08-05T09:50:38.200Z,16.77
2022-08-05T09:53:22.881Z,17.05
2022-08-05T09:55:58.100Z,15.00
2022-08-05T09:58:31.398Z,17.95
2022-08-05T10:01:01.536Z,15.43
2022-08-05T10:03:58.500Z,13.73
2022-08-05T10:06:28.484Z,12.18
2022-08-05T10:08:56.423Z,15.52
2022-08-05T10:11:24.351Z,14.18
2022-08-05T10:13:58.900Z,20.02
2022-08-05T10:16:30.858Z,15.75
2022-08-05T10:18:59.982Z,12.95
2022-08-05T10:21:35.253Z,19.70
2022-08-05T10:24:10.676Z,23.20
2022-08-05T10:26:51.351Z,11.70
2022-08-05T10:30:05.879Z,12.63
2022-08-05T10:32:53.218Z,13.75
2022-08-05T10:35:01.066Z,10.20
2022-08-05T10:37:41.337Z,17.38
2022-08-05T10:40:17.965Z,10.98
2022-08-05T10:42:48.627Z,11.07
2022-08-05T10:45:23.870Z,9.23
2022-08-05T10:48:31.877Z,15.25
2022-08-05T10:51:03.367Z,9.90
2022-08-05T10:53:38.025Z,36.13
2022-08-05T10:56:14.933Z,10.57
2022-08-05T10:59:12.458Z,8.53
2022-08-05T11:02:06.746Z,15.63
2022-08-05T11:04:43.592Z,8.35
2022-08-05T11:07:15.431Z,8.82
2022-08-05T11:09:47.057Z,9.75
2022-08-05T11:12:33.325Z,7.28
2022-08-05T11:15:19.136Z,9.68
2022-08-05T11:17:57.884Z,11.02
2022-08-05T11:20:37.490Z,10.43
2022-08-05T11:23:25.425Z,12.15
2022-08-05T11:26:08.875Z,9.15
2022-08-05T11:28:58.671Z,7.28
2022-08-05T11:31:54.460Z,14.63
2022-08-05T11:34:36.987Z,6.47
2022-08-05T11:37:06.246Z,5.68
2022-08-05T11:39:55.459Z,19.23
2022-08-05T11:42:29.887Z,7.07
2022-08-05T11:45:03.580Z,4.32
2022-08-05T11:47:49.593Z,9.55
2022-08-05T11:50:17.972Z,8.20
2022-08-05T11:55:16.471Z,8.15
2022-08-05T11:58:10.521Z,8.75
2022-08-05T12:00:38.106Z,8.40
2022-08-05T12:03:16.657Z,5.18
2022-08-05T12:05:58.907Z,6.90
2022-08-05T12:08:27.473Z,7.75
2022-08-05T12:10:58.520Z,10.85
2022-08-05T12:13:48.639Z,8.52
2022-08-05T12:16:18.875Z,8.82
2022-08-05T12:18:48.693Z,8.73
2022-08-05T12:21:21.289Z,4.68
2022-08-05T12:23:54.599Z,10.73
2022-08-05T12:26:23.179Z,8.95
2022-08-05T12:28:52.876Z,7.25
2022-08-05T12:31:23.316Z,8.18
2022-08-05T12:34:01.558Z,5.82
2022-08-05T12:36:31.294Z,8.38
2022-08-05T12:38:59.180Z,12.43
2022-08-05T12:41:34.459Z,5.75
2022-08-05T12:44:05.061Z,5.38
2022-08-05T12:46:39.593Z,7.50
2022-08-05T12:49:13.839Z,6.00
2022-08-05T12:52:14.199Z,7.35
2022-08-05T12:54:33.226Z,5.07
2022-08-05T12:57:02.210Z,7.80
2022-08-05T12:59:46.689Z,7.13
2022-08-05T13:02:27.234Z,7.38
2022-08-05T13:04:57.942Z,7.40
2022-08-05T13:07:57.171Z,7.35
2022-08-05T13:10:20.116Z,4.20
2022-08-05T13:12:51.000Z,5.63
2022-08-05T13:15:35.986Z,10.00
2022-08-05T13:18:09.763Z,13.82
2022-08-05T13:23:07.759Z,7.30
2022-08-05T13:25:58.526Z,5.40
2022-08-05T13:28:22.795Z,6.13
2022-08-05T13:30:53.160Z,8.20
2022-08-05T13:34:22.398Z,5.60
2022-08-05T13:36:09.259Z,4.60
2022-08-05T13:38:42.485Z,7.40
2022-08-05T13:41:10.650Z,7.60
2022-08-05T13:43:45.759Z,5.32
2022-08-05T13:46:37.907Z,8.35
2022-08-05T13:49:11.750Z,8.48
2022-08-05T13:51:41.010Z,7.35
2022-08-05T13:54:12.772Z,4.97
2022-08-05T13:56:50.858Z,4.90
2022-08-05T13:59:21.402Z,4.20
2022-08-05T14:01:56.589Z,7.85
2022-08-05T14:04:43.296Z,8.85
2022-08-05T14:07:25.714Z,6.60
2022-08-05T14:10:08.192Z,3.88
2022-08-05T14:12:36.181Z,3.58
2022-08-05T14:17:34.956Z,10.38
2022-08-05T14:20:07.534Z,9.80
2022-08-05T14:22:35.956Z,6.40
2022-08-05T14:25:06.464Z,5.80
2022-08-05T14:27:51.277Z,7.15
2022-08-05T14:30:20.812Z,5.82
2022-08-05T14:32:50.329Z,8.90
2022-08-05T14:35:20.681Z,7.22
2022-08-05T14:37:55.050Z,5.47
2022-08-05T14:40:24.145Z,8.32
2022-08-05T14:42:52.404Z,7.70
2022-08-05T14:50:35.987Z,5.70
2022-08-05T14:53:07.268Z,2.95
2022-08-05T14:55:39.108Z,43.88
2022-08-05T14:58:11.242Z,8.93
2022-08-05T15:00:58.932Z,5.53
2022-08-05T15:03:27.765Z,10.05
2022-08-05T15:06:08.014Z,4.20
2022-08-05T15:08:59.553Z,7.07
2022-08-05T15:11:51.751Z,4.25
2022-08-05T15:14:33.572Z,4.22
2022-08-05T15:17:04.611Z,4.30
2022-08-05T15:19:32.465Z,4.22
2022-08-05T15:22:01.995Z,9.45
2022-08-05T15:24:29.659Z,3.20
2022-08-05T15:26:58.515Z,5.22
2022-08-05T15:29:29.740Z,6.03
2022-08-05T15:32:02.202Z,6.18
2022-08-05T15:34:33.830Z,4.95
2022-08-05T15:37:06.781Z,2.63
2022-08-05T15:41:01.901Z,11.15
2022-08-05T15:42:56.641Z,3.95
2022-08-05T15:45:38.043Z,2.78
2022-08-05T15:48:08.510Z,4.68
2022-08-05T15:50:43.892Z,2.88
2022-08-05T15:53:15.129Z,9.63
2022-08-05T15:56:04.285Z,96.68
2022-08-05T15:58:35.737Z,14.60
2022-08-05T16:01:16.381Z,9.63
2022-08-05T16:03:48.494Z,3.80
2022-08-05T16:06:19.564Z,10.13
2022-08-05T16:08:53.759Z,3.88
2022-08-05T16:11:42.851Z,2.53
2022-08-05T16:14:17.342Z,2.63
2022-08-05T16:16:46.479Z,6.32
2022-08-05T16:19:18.983Z,7.30
2022-08-05T16:22:03.342Z,4.60
2022-08-05T16:24:41.598Z,2.03
2022-08-05T16:27:19.375Z,4.47
2022-08-05T16:30:00.494Z,3.67
2022-08-05T16:32:29.758Z,6.10
2022-08-05T16:34:58.878Z,4.28
2022-08-05T16:38:15.095Z,2.47
2022-08-05T16:40:26.464Z,4.95
2022-08-05T16:42:56.973Z,5.22
2022-08-05T16:46:06.295Z,2.35
2022-08-05T16:48:25.849Z,4.90
2022-08-05T16:51:00.298Z,6.65
2022-08-05T16:54:03.333Z,6.10
2022-08-05T16:56:17.126Z,4.10
2022-08-05T16:58:44.997Z,22.05
2022-08-05T17:01:13.618Z,3.13
2022-08-05T17:03:41.446Z,4.68
2022-08-05T17:08:52.762Z,2.50
2022-08-05T17:11:25.756Z,6.13
2022-08-05T17:14:00.263Z,4.72
2022-08-05T17:16:36.184Z,4.95
2022-08-05T17:19:07.805Z,10.20
2022-08-05T17:21:39.358Z,4.72
2022-08-05T17:24:30.327Z,2.35
2022-08-05T17:26:57.996Z,4.10
2022-08-05T17:29:33.718Z,7.93
2022-08-05T17:32:08.413Z,4.22
2022-08-05T17:34:38.838Z,2.47
2022-08-05T17:39:44.583Z,3.10
2022-08-05T17:42:18.473Z,4.45
2022-08-05T17:44:51.195Z,3.92
2022-08-05T17:47:21.945Z,12.00
2022-08-05T17:49:51.983Z,25.48
2022-08-05T17:52:32.303Z,4.55
2022-08-05T17:57:28.843Z,1.98
2022-08-05T18:00:04.848Z,8.13
2022-08-05T18:02:34.076Z,3.03
2022-08-05T18:05:03.158Z,2.05
2022-08-05T18:07:42.050Z,3.42
2022-08-05T18:10:11.141Z,4.25
2022-08-05T18:12:40.455Z,2.85
2022-08-05T18:15:09.393Z,9.48
2022-08-05T18:17:58.684Z,4.07
2022-08-05T18:20:29.279Z,4.40
2022-08-05T18:23:00.600Z,4.28
2022-08-05T18:25:39.175Z,3.00
2022-08-05T18:28:09.314Z,4.45
2022-08-05T18:30:39.083Z,3.40
2022-08-05T18:33:08.586Z,3.95
2022-08-05T18:35:59.738Z,3.65
2022-08-05T18:38:30.646Z,9.02
2022-08-05T18:41:55.981Z,4.95
2022-08-05T18:43:48.640Z,6.32
2022-08-05T18:46:19.970Z,16.98
2022-08-05T18:48:51.617Z,2.78
2022-08-05T18:52:03.113Z,3.28
2022-08-05T18:54:25.172Z,4.00
2022-08-05T18:56:52.831Z,3.58
2022-08-05T18:59:44.143Z,9.57
2022-08-05T19:02:27.231Z,5.22
2022-08-05T19:05:02.933Z,4.18
2022-08-05T19:07:50.097Z,3.55
2022-08-05T19:10:18.332Z,4.22
2022-08-05T19:12:54.409Z,3.83
2022-08-05T19:15:54.634Z,11.93
2022-08-05T19:18:13.602Z,3.05
2022-08-05T19:20:51.524Z,5.20
2022-08-05T19:24:04.461Z,8.15
2022-08-05T19:26:08.428Z,2.67
2022-08-05T19:28:41.556Z,5.85
2022-08-05T19:31:13.645Z,4.03
2022-08-05T19:33:48.751Z,8.50
2022-08-05T19:36:23.935Z,2.65
2022-08-05T19:38:52.086Z,3.58
2022-08-05T19:41:21.904Z,6.05
2022-08-05T19:44:13.523Z,2.10
2022-08-05T19:46:43.555Z,6.30
2022-08-05T19:49:12.577Z,5.28
2022-08-05T19:52:08.324Z,6.82
2022-08-05T19:57:02.428Z,5.45
2022-08-05T20:00:00.714Z,3.85
2022-08-05T20:02:20.061Z,1.75
2022-08-05T20:04:48.489Z,5.53
2022-08-05T20:07:16.325Z,3.70
2022-08-05T20:10:04.786Z,3.90
2022-08-05T20:12:39.149Z,4.50
2022-08-05T20:15:15.871Z,4.57
2022-08-05T20:18:10.368Z,4.97
2022-08-05T20:20:55.822Z,2.40
2022-08-05T20:23:39.182Z,3.95
2022-08-05T20:26:16.351Z,4.00
2022-08-05T20:28:45.283Z,4.07
2022-08-05T20:31:13.046Z,3.25
2022-08-05T20:33:42.704Z,2.50
2022-08-05T20:36:11.245Z,2.88
2022-08-05T20:38:53.534Z,3.63
2022-08-05T20:41:23.923Z,3.97
2022-08-05T20:44:00.428Z,9.68
2022-08-05T20:46:33.003Z,4.47
2022-08-05T20:49:02.460Z,4.80
2022-08-05T20:51:33.765Z,3.78
2022-08-05T20:54:01.496Z,5.43
2022-08-05T20:56:34.049Z,2.75
2022-08-05T20:59:13.863Z,2.85
2022-08-05T21:01:44.929Z,4.45
2022-08-05T21:04:14.148Z,17.13
2022-08-05T21:06:45.025Z,3.10
2022-08-05T21:09:14.776Z,9.25
2022-08-05T21:12:09.991Z,3.22
2022-08-05T21:14:34.592Z,6.70
2022-08-05T21:17:03.151Z,9.80
2022-08-05T21:19:46.916Z,14.27
2022-08-05T21:22:18.287Z,2.28
2022-08-05T21:24:52.363Z,6.03
2022-08-05T21:27:25.013Z,3.97
2022-08-05T21:29:54.220Z,3.40
2022-08-05T21:32:23.301Z,3.92
2022-08-05T21:35:06.839Z,6.97
2022-08-05T21:37:41.676Z,5.32
2022-08-05T21:40:16.512Z,3.70
2022-08-05T21:42:45.648Z,4.28
2022-08-05T21:45:24.263Z,4.35
2022-08-05T21:47:56.924Z,5.47
2022-08-05T21:50:27.013Z,13.00
2022-08-05T21:52:59.080Z,5.45
2022-08-05T21:58:19.943Z,3.63
2022-08-05T22:00:52.649Z,6.63
2022-08-05T22:03:20.661Z,4.85
2022-08-05T22:06:09.272Z,4.18
2022-08-05T22:08:36.872Z,6.30
2022-08-05T22:11:11.861Z,11.52
2022-08-05T22:14:05.560Z,8.15
2022-08-05T22:19:15.095Z,3.83
2022-08-05T22:24:51.741Z,6.32
2022-08-05T22:28:09.384Z,4.93
2022-08-05T22:30:25.073Z,3.78
2022-08-05T22:33:00.663Z,5.32
2022-08-05T22:35:38.713Z,6.55
2022-08-05T22:40:49.622Z,4.05
2022-08-05T22:43:37.228Z,3.50
2022-08-05T22:48:40.998Z,6.22
2022-08-05T22:51:16.077Z,4.95
2022-08-05T22:53:50.938Z,12.18
2022-08-05T22:56:30.054Z,8.93
2022-08-05T22:58:58.599Z,6.22
2022-08-05T23:02:04.108Z,6.50
2022-08-05T23:04:15.634Z,13.27
2022-08-05T23:09:24.614Z,9.85
2022-08-05T23:11:59.850Z,5.93
2022-08-05T23:14:32.110Z,6.22
2022-08-05T23:17:18.684Z,7.03
2022-08-05T23:19:56.128Z,7.88
2022-08-05T23:22:27.085Z,7.13
2022-08-05T23:24:55.335Z,10.32
2022-08-05T23:27:24.214Z,10.52
2022-08-05T23:30:00.732Z,10.98
2022-08-05T23:32:28.814Z,6.13
2022-08-05T23:34:56.534Z,5.50
2022-08-05T23:37:23.970Z,6.95
2022-08-05T23:39:54.952Z,6.00
2022-08-05T23:42:29.226Z,5.60
2022-08-05T23:44:57.392Z,6.32
2022-08-05T23:47:25.366Z,7.88
2022-08-05T23:52:30.710Z,7.63
2022-08-05T23:55:00.077Z,7.97
2022-08-05T23:57:28.997Z,4.63
